sensor_id;sensor_type;location;lat;lon;timestamp;temperature;humidity
11474;DHT22;5793;52.238;13.438;2023-05-10T00:00:15;10.30;99.90
11474;DHT22;5793;52.238;13.438;2023-05-10T00:02:44;10.30;99.90
11474;DHT22;5793;52.238;13.438;2023-05-10T00:05:12;10.30;99.90
11474;DHT22;5793;52.238;13.438;2023-05-10T00:07:41;10.30;99.90
11474;DHT22;5793;52.238;13.438;2023-05-10T00:10:11;10.30;99.90
11474;DHT22;5793;52.238;13.438;2023-05-10T00:12:39;10.10;99.90
11474;DHT22;5793;52.238;13.438;2023-05-10T00:15:08;10.00;99.90
11474;DHT22;5793;52.238;13.438;2023-05-10T00:17:37;10.00;99.90
11474;DHT22;5793;52.238;13.438;2023-05-10T00:20:05;10.00;99.90
11474;DHT22;5793;52.238;13.438;2023-05-10T00:22:33;10.00;99.90
11474;DHT22;5793;52.238;13.438;2023-05-10T00:25:04;9.90;99.90
11474;DHT22;5793;52.238;13.438;2023-05-10T00:27:32;10.00;99.90
11474;DHT22;5793;52.238;13.438;2023-05-10T00:30:00;9.90;99.90
11474;DHT22;5793;52.238;13.438;2023-05-10T00:32:28;9.90;99.90
11474;DHT22;5793;52.238;13.438;2023-05-10T00:34:56;9.90;99.90
11474;DHT22;5793;52.238;13.438;2023-05-10T00:37:24;9.90;99.90
11474;DHT22;5793;52.238;13.438;2023-05-10T00:39:51;10.00;99.90
11474;DHT22;5793;52.238;13.438;2023-05-10T00:42:21;9.90;99.90
11474;DHT22;5793;52.238;13.438;2023-05-10T00:44:49;9.80;99.90
11474;DHT22;5793;52.238;13.438;2023-05-10T00:47:17;9.80;99.90
11474;DHT22;5793;52.238;13.438;2023-05-10T00:49:45;9.90;99.90
11474;DHT22;5793;52.238;13.438;2023-05-10T00:52:13;9.80;99.90
11474;DHT22;5793;52.238;13.438;2023-05-10T00:54:42;9.90;99.90
11474;DHT22;5793;52.238;13.438;2023-05-10T00:57:10;9.90;99.90
11474;DHT22;5793;52.238;13.438;2023-05-10T00:59:39;9.90;99.90
11474;DHT22;5793;52.238;13.438;2023-05-10T01:02:07;10.00;99.90
11474;DHT22;5793;52.238;13.438;2023-05-10T01:04:35;10.00;99.90
11474;DHT22;5793;52.238;13.438;2023-05-10T01:07:03;9.90;99.90
11474;DHT22;5793;52.238;13.438;2023-05-10T01:09:31;9.90;99.90
11474;DHT22;5793;52.238;13.438;2023-05-10T01:12:00;9.90;99.90
11474;DHT22;5793;52.238;13.438;2023-05-10T01:14:30;9.90;99.90
11474;DHT22;5793;52.238;13.438;2023-05-10T01:16:59;9.90;99.90
11474;DHT22;5793;52.238;13.438;2023-05-10T01:19:29;9.90;99.90
11474;DHT22;5793;52.238;13.438;2023-05-10T01:22:08;9.90;99.90
11474;DHT22;5793;52.238;13.438;2023-05-10T01:25:11;9.90;99.90
11474;DHT22;5793;52.238;13.438;2023-05-10T01:28:08;9.90;99.90
11474;DHT22;5793;52.238;13.438;2023-05-10T01:33:48;9.80;99.90
11474;DHT22;5793;52.238;13.438;2023-05-10T01:36:21;9.70;99.90
11474;DHT22;5793;52.238;13.438;2023-05-10T01:38:58;9.70;99.90
11474;DHT22;5793;52.238;13.438;2023-05-10T01:41:34;9.70;99.90
11474;DHT22;5793;52.238;13.438;2023-05-10T01:44:09;9.70;99.90
11474;DHT22;5793;52.238;13.438;2023-05-10T01:46:39;9.70;99.90
11474;DHT22;5793;52.238;13.438;2023-05-10T01:49:11;9.60;99.90
11474;DHT22;5793;52.238;13.438;2023-05-10T01:51:45;9.60;99.90
11474;DHT22;5793;52.238;13.438;2023-05-10T01:54:17;9.60;99.90
11474;DHT22;5793;52.238;13.438;2023-05-10T01:56:48;9.60;99.90
11474;DHT22;5793;52.238;13.438;2023-05-10T01:59:19;9.50;99.90
11474;DHT22;5793;52.238;13.438;2023-05-10T02:01:48;9.40;99.90
11474;DHT22;5793;52.238;13.438;2023-05-10T02:04:19;9.40;99.90
11474;DHT22;5793;52.238;13.438;2023-05-10T02:06:54;9.30;99.90
11474;DHT22;5793;52.238;13.438;2023-05-10T02:09:23;9.30;99.90
11474;DHT22;5793;52.238;13.438;2023-05-10T02:11:54;9.20;99.90
11474;DHT22;5793;52.238;13.438;2023-05-10T02:14:22;9.20;99.90
11474;DHT22;5793;52.238;13.438;2023-05-10T02:16:52;9.10;99.90
11474;DHT22;5793;52.238;13.438;2023-05-10T02:19:23;9.10;99.90
11474;DHT22;5793;52.238;13.438;2023-05-10T02:21:52;9.10;99.90
11474;DHT22;5793;52.238;13.438;2023-05-10T02:24:20;9.10;99.90
11474;DHT22;5793;52.238;13.438;2023-05-10T02:26:50;9.10;99.90
11474;DHT22;5793;52.238;13.438;2023-05-10T02:29:18;9.10;99.90
11474;DHT22;5793;52.238;13.438;2023-05-10T02:31:47;9.20;99.90
11474;DHT22;5793;52.238;13.438;2023-05-10T02:34:15;9.20;99.90
11474;DHT22;5793;52.238;13.438;2023-05-10T02:36:44;9.20;99.90
11474;DHT22;5793;52.238;13.438;2023-05-10T02:39:14;9.20;99.90
11474;DHT22;5793;52.238;13.438;2023-05-10T02:41:42;9.20;99.90
11474;DHT22;5793;52.238;13.438;2023-05-10T02:44:11;9.10;99.90
11474;DHT22;5793;52.238;13.438;2023-05-10T02:46:41;9.00;99.90
11474;DHT22;5793;52.238;13.438;2023-05-10T02:49:10;8.90;99.90
11474;DHT22;5793;52.238;13.438;2023-05-10T02:51:41;8.80;99.90
11474;DHT22;5793;52.238;13.438;2023-05-10T02:54:13;8.80;99.90
11474;DHT22;5793;52.238;13.438;2023-05-10T02:56:47;8.80;99.90
11474;DHT22;5793;52.238;13.438;2023-05-10T02:59:18;8.70;99.90
11474;DHT22;5793;52.238;13.438;2023-05-10T03:01:46;8.70;99.90
11474;DHT22;5793;52.238;13.438;2023-05-10T03:04:14;8.70;99.90
11474;DHT22;5793;52.238;13.438;2023-05-10T03:06:42;8.70;99.90
11474;DHT22;5793;52.238;13.438;2023-05-10T03:09:12;8.70;99.90
11474;DHT22;5793;52.238;13.438;2023-05-10T03:11:52;8.60;99.90
11474;DHT22;5793;52.238;13.438;2023-05-10T03:14:34;8.60;99.90
11474;DHT22;5793;52.238;13.438;2023-05-10T03:17:08;8.60;99.90
11474;DHT22;5793;52.238;13.438;2023-05-10T03:19:43;8.50;99.90
11474;DHT22;5793;52.238;13.438;2023-05-10T03:22:18;8.40;99.90
11474;DHT22;5793;52.238;13.438;2023-05-10T03:24:51;8.30;99.90
11474;DHT22;5793;52.238;13.438;2023-05-10T03:27:22;8.20;99.90
11474;DHT22;5793;52.238;13.438;2023-05-10T03:29:52;8.10;99.90
11474;DHT22;5793;52.238;13.438;2023-05-10T03:32:20;8.10;99.90
11474;DHT22;5793;52.238;13.438;2023-05-10T03:34:48;8.10;99.90
11474;DHT22;5793;52.238;13.438;2023-05-10T03:37:35;8.00;99.90
11474;DHT22;5793;52.238;13.438;2023-05-10T03:40:05;8.10;99.90
11474;DHT22;5793;52.238;13.438;2023-05-10T03:42:33;8.10;99.90
11474;DHT22;5793;52.238;13.438;2023-05-10T03:45:02;8.10;99.90
11474;DHT22;5793;52.238;13.438;2023-05-10T03:47:30;8.10;99.90
11474;DHT22;5793;52.238;13.438;2023-05-10T03:49:58;8.10;99.90
11474;DHT22;5793;52.238;13.438;2023-05-10T03:52:26;8.20;99.90
11474;DHT22;5793;52.238;13.438;2023-05-10T03:54:53;8.30;99.90
11474;DHT22;5793;52.238;13.438;2023-05-10T03:57:22;8.30;99.90
11474;DHT22;5793;52.238;13.438;2023-05-10T03:59:50;8.30;99.90
11474;DHT22;5793;52.238;13.438;2023-05-10T04:02:18;8.20;99.90
11474;DHT22;5793;52.238;13.438;2023-05-10T04:04:46;8.30;99.90
11474;DHT22;5793;52.238;13.438;2023-05-10T04:07:14;8.40;99.90
11474;DHT22;5793;52.238;13.438;2023-05-10T04:09:42;8.40;99.90
11474;DHT22;5793;52.238;13.438;2023-05-10T04:12:10;8.50;99.90
11474;DHT22;5793;52.238;13.438;2023-05-10T04:14:39;8.60;99.90
11474;DHT22;5793;52.238;13.438;2023-05-10T04:17:07;8.60;99.90
11474;DHT22;5793;52.238;13.438;2023-05-10T04:19:35;8.70;99.90
11474;DHT22;5793;52.238;13.438;2023-05-10T04:22:04;8.70;99.90
11474;DHT22;5793;52.238;13.438;2023-05-10T04:24:31;8.80;99.90
11474;DHT22;5793;52.238;13.438;2023-05-10T04:26:59;8.80;99.90
11474;DHT22;5793;52.238;13.438;2023-05-10T04:29:27;9.00;99.90
11474;DHT22;5793;52.238;13.438;2023-05-10T04:31:56;9.00;99.90
11474;DHT22;5793;52.238;13.438;2023-05-10T04:34:25;9.00;99.90
11474;DHT22;5793;52.238;13.438;2023-05-10T04:36:52;9.10;99.90
11474;DHT22;5793;52.238;13.438;2023-05-10T04:39:20;9.20;99.90
11474;DHT22;5793;52.238;13.438;2023-05-10T04:41:48;9.30;99.90
11474;DHT22;5793;52.238;13.438;2023-05-10T04:44:18;9.30;99.90
11474;DHT22;5793;52.238;13.438;2023-05-10T04:46:46;9.40;99.90
11474;DHT22;5793;52.238;13.438;2023-05-10T04:49:15;9.60;99.90
11474;DHT22;5793;52.238;13.438;2023-05-10T04:51:43;9.70;99.90
11474;DHT22;5793;52.238;13.438;2023-05-10T04:54:11;9.90;99.90
11474;DHT22;5793;52.238;13.438;2023-05-10T04:56:39;10.00;99.90
11474;DHT22;5793;52.238;13.438;2023-05-10T04:59:07;10.00;99.90
11474;DHT22;5793;52.238;13.438;2023-05-10T05:01:36;10.10;99.90
11474;DHT22;5793;52.238;13.438;2023-05-10T05:04:04;10.20;99.90
11474;DHT22;5793;52.238;13.438;2023-05-10T05:06:35;10.30;99.90
11474;DHT22;5793;52.238;13.438;2023-05-10T05:09:05;10.30;99.90
11474;DHT22;5793;52.238;13.438;2023-05-10T05:11:33;10.50;99.90
11474;DHT22;5793;52.238;13.438;2023-05-10T05:14:01;10.50;99.90
11474;DHT22;5793;52.238;13.438;2023-05-10T05:16:30;10.50;99.90
11474;DHT22;5793;52.238;13.438;2023-05-10T05:18:59;10.50;99.90
11474;DHT22;5793;52.238;13.438;2023-05-10T05:21:27;10.70;99.90
11474;DHT22;5793;52.238;13.438;2023-05-10T05:23:57;10.80;99.90
11474;DHT22;5793;52.238;13.438;2023-05-10T05:26:24;10.80;99.90
11474;DHT22;5793;52.238;13.438;2023-05-10T05:28:53;11.00;99.90
11474;DHT22;5793;52.238;13.438;2023-05-10T05:31:21;11.00;99.90
11474;DHT22;5793;52.238;13.438;2023-05-10T05:33:49;11.10;99.90
11474;DHT22;5793;52.238;13.438;2023-05-10T05:36:17;11.30;99.90
11474;DHT22;5793;52.238;13.438;2023-05-10T05:38:44;11.30;99.90
11474;DHT22;5793;52.238;13.438;2023-05-10T05:41:14;11.30;99.90
11474;DHT22;5793;52.238;13.438;2023-05-10T05:43:41;11.50;99.90
11474;DHT22;5793;52.238;13.438;2023-05-10T05:46:09;11.60;99.90
11474;DHT22;5793;52.238;13.438;2023-05-10T05:48:39;11.70;99.90
11474;DHT22;5793;52.238;13.438;2023-05-10T05:51:07;11.90;99.90
11474;DHT22;5793;52.238;13.438;2023-05-10T05:53:35;11.90;99.90
11474;DHT22;5793;52.238;13.438;2023-05-10T05:56:04;12.00;99.90
11474;DHT22;5793;52.238;13.438;2023-05-10T05:58:33;12.10;99.90
11474;DHT22;5793;52.238;13.438;2023-05-10T06:01:01;12.20;99.90
11474;DHT22;5793;52.238;13.438;2023-05-10T06:03:29;12.40;99.90
11474;DHT22;5793;52.238;13.438;2023-05-10T06:05:57;12.60;99.90
11474;DHT22;5793;52.238;13.438;2023-05-10T06:08:25;12.50;99.90
11474;DHT22;5793;52.238;13.438;2023-05-10T06:10:53;12.70;99.90
11474;DHT22;5793;52.238;13.438;2023-05-10T06:13:21;12.90;99.90
11474;DHT22;5793;52.238;13.438;2023-05-10T06:15:50;13.00;99.90
11474;DHT22;5793;52.238;13.438;2023-05-10T06:18:18;13.10;99.90
11474;DHT22;5793;52.238;13.438;2023-05-10T06:20:46;13.20;99.90
11474;DHT22;5793;52.238;13.438;2023-05-10T06:23:14;13.30;99.90
11474;DHT22;5793;52.238;13.438;2023-05-10T06:25:42;13.30;99.90
11474;DHT22;5793;52.238;13.438;2023-05-10T06:28:10;13.30;99.90
11474;DHT22;5793;52.238;13.438;2023-05-10T06:30:38;13.50;99.90
11474;DHT22;5793;52.238;13.438;2023-05-10T06:33:07;13.60;99.90
11474;DHT22;5793;52.238;13.438;2023-05-10T06:35:35;13.70;99.90
11474;DHT22;5793;52.238;13.438;2023-05-10T06:38:03;13.80;99.90
11474;DHT22;5793;52.238;13.438;2023-05-10T06:40:31;13.90;99.90
11474;DHT22;5793;52.238;13.438;2023-05-10T06:42:59;14.00;99.90
11474;DHT22;5793;52.238;13.438;2023-05-10T06:45:27;14.00;99.90
11474;DHT22;5793;52.238;13.438;2023-05-10T06:47:55;14.30;99.90
11474;DHT22;5793;52.238;13.438;2023-05-10T06:50:27;14.20;99.90
11474;DHT22;5793;52.238;13.438;2023-05-10T06:52:55;14.40;99.90
11474;DHT22;5793;52.238;13.438;2023-05-10T06:55:23;14.50;99.90
11474;DHT22;5793;52.238;13.438;2023-05-10T06:57:52;14.50;99.90
11474;DHT22;5793;52.238;13.438;2023-05-10T07:00:23;14.60;99.90
11474;DHT22;5793;52.238;13.438;2023-05-10T07:02:51;14.80;99.90
11474;DHT22;5793;52.238;13.438;2023-05-10T07:05:19;14.90;99.90
11474;DHT22;5793;52.238;13.438;2023-05-10T07:07:49;14.90;99.90
11474;DHT22;5793;52.238;13.438;2023-05-10T07:10:18;15.10;99.90
11474;DHT22;5793;52.238;13.438;2023-05-10T07:12:46;15.30;99.90
11474;DHT22;5793;52.238;13.438;2023-05-10T07:15:14;15.40;99.90
11474;DHT22;5793;52.238;13.438;2023-05-10T07:17:43;15.50;99.90
11474;DHT22;5793;52.238;13.438;2023-05-10T07:20:12;15.60;99.90
11474;DHT22;5793;52.238;13.438;2023-05-10T07:22:41;15.80;99.90
11474;DHT22;5793;52.238;13.438;2023-05-10T07:25:10;16.00;99.90
11474;DHT22;5793;52.238;13.438;2023-05-10T07:27:38;16.20;99.90
11474;DHT22;5793;52.238;13.438;2023-05-10T07:30:07;16.40;99.90
11474;DHT22;5793;52.238;13.438;2023-05-10T07:32:35;16.60;99.90
11474;DHT22;5793;52.238;13.438;2023-05-10T07:35:04;16.70;99.90
11474;DHT22;5793;52.238;13.438;2023-05-10T07:37:33;16.80;99.90
11474;DHT22;5793;52.238;13.438;2023-05-10T07:40:01;17.00;99.90
11474;DHT22;5793;52.238;13.438;2023-05-10T07:42:31;17.20;99.90
11474;DHT22;5793;52.238;13.438;2023-05-10T07:44:58;17.40;99.90
11474;DHT22;5793;52.238;13.438;2023-05-10T07:47:26;17.50;99.90
11474;DHT22;5793;52.238;13.438;2023-05-10T07:49:54;17.50;99.90
11474;DHT22;5793;52.238;13.438;2023-05-10T07:52:22;17.60;99.90
11474;DHT22;5793;52.238;13.438;2023-05-10T07:54:50;17.70;99.90
11474;DHT22;5793;52.238;13.438;2023-05-10T07:57:18;17.90;99.90
11474;DHT22;5793;52.238;13.438;2023-05-10T07:59:47;18.10;99.90
11474;DHT22;5793;52.238;13.438;2023-05-10T08:02:15;18.40;99.90
11474;DHT22;5793;52.238;13.438;2023-05-10T08:04:43;18.80;99.90
11474;DHT22;5793;52.238;13.438;2023-05-10T08:07:15;19.60;99.90
11474;DHT22;5793;52.238;13.438;2023-05-10T08:09:42;20.10;99.90
11474;DHT22;5793;52.238;13.438;2023-05-10T08:12:10;20.30;99.90
11474;DHT22;5793;52.238;13.438;2023-05-10T08:14:39;20.60;99.90
11474;DHT22;5793;52.238;13.438;2023-05-10T08:17:09;20.40;99.90
11474;DHT22;5793;52.238;13.438;2023-05-10T08:19:37;20.30;99.90
11474;DHT22;5793;52.238;13.438;2023-05-10T08:22:05;20.60;99.90
11474;DHT22;5793;52.238;13.438;2023-05-10T08:24:33;20.70;99.90
11474;DHT22;5793;52.238;13.438;2023-05-10T08:27:05;21.30;99.90
11474;DHT22;5793;52.238;13.438;2023-05-10T08:29:32;22.70;99.90
11474;DHT22;5793;52.238;13.438;2023-05-10T08:32:16;24.40;99.90
11474;DHT22;5793;52.238;13.438;2023-05-10T08:34:44;26.50;97.50
11474;DHT22;5793;52.238;13.438;2023-05-10T08:37:12;27.70;88.90
11474;DHT22;5793;52.238;13.438;2023-05-10T08:39:40;29.80;78.80
11474;DHT22;5793;52.238;13.438;2023-05-10T08:42:09;31.70;70.90
11474;DHT22;5793;52.238;13.438;2023-05-10T08:44:37;32.70;60.40
11474;DHT22;5793;52.238;13.438;2023-05-10T08:47:06;33.80;56.50
11474;DHT22;5793;52.238;13.438;2023-05-10T08:49:37;34.20;52.20
11474;DHT22;5793;52.238;13.438;2023-05-10T08:52:08;34.30;51.70
11474;DHT22;5793;52.238;13.438;2023-05-10T08:54:37;34.60;49.90
11474;DHT22;5793;52.238;13.438;2023-05-10T08:57:05;36.00;47.40
11474;DHT22;5793;52.238;13.438;2023-05-10T08:59:34;35.50;45.70
11474;DHT22;5793;52.238;13.438;2023-05-10T09:02:02;34.60;46.10
11474;DHT22;5793;52.238;13.438;2023-05-10T09:04:32;34.50;47.40
11474;DHT22;5793;52.238;13.438;2023-05-10T09:07:01;35.20;46.50
11474;DHT22;5793;52.238;13.438;2023-05-10T09:09:29;34.50;45.30
11474;DHT22;5793;52.238;13.438;2023-05-10T09:11:58;34.10;45.60
11474;DHT22;5793;52.238;13.438;2023-05-10T09:14:26;33.90;46.10
11474;DHT22;5793;52.238;13.438;2023-05-10T09:16:54;34.70;45.20
11474;DHT22;5793;52.238;13.438;2023-05-10T09:19:22;35.40;43.80
11474;DHT22;5793;52.238;13.438;2023-05-10T09:21:50;34.70;45.70
11474;DHT22;5793;52.238;13.438;2023-05-10T09:24:25;34.70;45.00
11474;DHT22;5793;52.238;13.438;2023-05-10T09:26:53;35.40;44.50
11474;DHT22;5793;52.238;13.438;2023-05-10T09:29:21;35.80;44.10
11474;DHT22;5793;52.238;13.438;2023-05-10T09:31:49;36.50;42.30
11474;DHT22;5793;52.238;13.438;2023-05-10T09:34:20;36.30;42.80
11474;DHT22;5793;52.238;13.438;2023-05-10T09:36:52;36.50;41.70
11474;DHT22;5793;52.238;13.438;2023-05-10T09:39:30;36.50;41.60
11474;DHT22;5793;52.238;13.438;2023-05-10T09:41:58;36.10;43.50
11474;DHT22;5793;52.238;13.438;2023-05-10T09:44:27;35.70;43.30
11474;DHT22;5793;52.238;13.438;2023-05-10T09:46:55;35.30;43.10
11474;DHT22;5793;52.238;13.438;2023-05-10T09:49:23;35.70;43.00
11474;DHT22;5793;52.238;13.438;2023-05-10T09:52:00;36.00;42.90
11474;DHT22;5793;52.238;13.438;2023-05-10T09:54:31;37.00;41.60
11474;DHT22;5793;52.238;13.438;2023-05-10T09:57:00;35.90;42.10
11474;DHT22;5793;52.238;13.438;2023-05-10T09:59:29;36.30;41.80
11474;DHT22;5793;52.238;13.438;2023-05-10T10:01:58;36.80;41.10
11474;DHT22;5793;52.238;13.438;2023-05-10T10:04:27;37.90;40.10
11474;DHT22;5793;52.238;13.438;2023-05-10T10:07:00;38.60;40.40
11474;DHT22;5793;52.238;13.438;2023-05-10T10:09:28;38.60;38.70
11474;DHT22;5793;52.238;13.438;2023-05-10T10:11:58;37.80;39.60
11474;DHT22;5793;52.238;13.438;2023-05-10T10:14:26;38.00;38.80
11474;DHT22;5793;52.238;13.438;2023-05-10T10:16:54;37.90;39.80
11474;DHT22;5793;52.238;13.438;2023-05-10T10:19:34;38.50;38.80
11474;DHT22;5793;52.238;13.438;2023-05-10T10:22:04;38.50;38.70
11474;DHT22;5793;52.238;13.438;2023-05-10T10:24:32;38.50;39.00
11474;DHT22;5793;52.238;13.438;2023-05-10T10:27:15;38.10;37.80
11474;DHT22;5793;52.238;13.438;2023-05-10T10:29:52;38.00;39.80
11474;DHT22;5793;52.238;13.438;2023-05-10T10:32:30;38.10;38.90
11474;DHT22;5793;52.238;13.438;2023-05-10T10:35:01;36.60;38.50
11474;DHT22;5793;52.238;13.438;2023-05-10T10:37:43;36.90;39.30
11474;DHT22;5793;52.238;13.438;2023-05-10T10:40:30;37.40;39.60
11474;DHT22;5793;52.238;13.438;2023-05-10T10:43:23;37.40;41.20
11474;DHT22;5793;52.238;13.438;2023-05-10T10:46:13;37.00;38.70
11474;DHT22;5793;52.238;13.438;2023-05-10T10:48:43;37.20;38.30
11474;DHT22;5793;52.238;13.438;2023-05-10T10:51:14;36.50;37.80
11474;DHT22;5793;52.238;13.438;2023-05-10T10:53:43;35.70;38.60
11474;DHT22;5793;52.238;13.438;2023-05-10T10:56:12;35.10;39.80
11474;DHT22;5793;52.238;13.438;2023-05-10T10:58:49;35.40;40.70
11474;DHT22;5793;52.238;13.438;2023-05-10T11:01:19;35.80;40.30
11474;DHT22;5793;52.238;13.438;2023-05-10T11:04:18;36.00;38.80
11474;DHT22;5793;52.238;13.438;2023-05-10T11:06:47;35.00;40.60
11474;DHT22;5793;52.238;13.438;2023-05-10T11:09:15;34.90;40.50
11474;DHT22;5793;52.238;13.438;2023-05-10T11:11:51;34.50;39.50
11474;DHT22;5793;52.238;13.438;2023-05-10T11:14:23;33.50;41.00
11474;DHT22;5793;52.238;13.438;2023-05-10T11:16:51;32.20;44.00
11474;DHT22;5793;52.238;13.438;2023-05-10T11:19:19;31.70;45.80
11474;DHT22;5793;52.238;13.438;2023-05-10T11:21:48;31.00;46.50
11474;DHT22;5793;52.238;13.438;2023-05-10T11:24:19;30.20;47.60
11474;DHT22;5793;52.238;13.438;2023-05-10T11:26:50;28.50;51.90
11474;DHT22;5793;52.238;13.438;2023-05-10T11:29:18;27.50;52.30
11474;DHT22;5793;52.238;13.438;2023-05-10T11:31:48;26.80;54.40
11474;DHT22;5793;52.238;13.438;2023-05-10T11:34:24;26.50;56.20
11474;DHT22;5793;52.238;13.438;2023-05-10T11:36:53;26.30;56.80
11474;DHT22;5793;52.238;13.438;2023-05-10T11:39:25;26.20;56.20
11474;DHT22;5793;52.238;13.438;2023-05-10T11:41:54;26.00;54.90
11474;DHT22;5793;52.238;13.438;2023-05-10T11:44:22;26.00;54.60
11474;DHT22;5793;52.238;13.438;2023-05-10T11:46:51;25.90;56.00
11474;DHT22;5793;52.238;13.438;2023-05-10T11:49:20;26.00;55.10
11474;DHT22;5793;52.238;13.438;2023-05-10T11:51:51;26.00;54.40
11474;DHT22;5793;52.238;13.438;2023-05-10T11:54:19;25.80;55.30
11474;DHT22;5793;52.238;13.438;2023-05-10T11:56:47;25.90;56.50
11474;DHT22;5793;52.238;13.438;2023-05-10T11:59:15;26.00;53.80
11474;DHT22;5793;52.238;13.438;2023-05-10T12:01:59;26.00;56.20
11474;DHT22;5793;52.238;13.438;2023-05-10T12:04:27;26.10;54.40
11474;DHT22;5793;52.238;13.438;2023-05-10T12:06:56;25.90;55.60
11474;DHT22;5793;52.238;13.438;2023-05-10T12:09:24;25.90;56.90
11474;DHT22;5793;52.238;13.438;2023-05-10T12:12:08;26.00;56.70
11474;DHT22;5793;52.238;13.438;2023-05-10T12:14:36;26.30;57.70
11474;DHT22;5793;52.238;13.438;2023-05-10T12:17:11;26.40;56.60
11474;DHT22;5793;52.238;13.438;2023-05-10T12:19:40;26.40;51.30
11474;DHT22;5793;52.238;13.438;2023-05-10T12:22:10;26.10;55.00
11474;DHT22;5793;52.238;13.438;2023-05-10T12:24:37;25.90;53.70
11474;DHT22;5793;52.238;13.438;2023-05-10T12:27:05;25.90;54.40
11474;DHT22;5793;52.238;13.438;2023-05-10T12:29:36;25.70;54.40
11474;DHT22;5793;52.238;13.438;2023-05-10T12:32:09;25.70;52.80
11474;DHT22;5793;52.238;13.438;2023-05-10T12:34:38;25.40;55.00
11474;DHT22;5793;52.238;13.438;2023-05-10T12:37:06;25.30;55.30
11474;DHT22;5793;52.238;13.438;2023-05-10T12:39:40;25.30;55.80
11474;DHT22;5793;52.238;13.438;2023-05-10T12:42:09;25.30;57.50
11474;DHT22;5793;52.238;13.438;2023-05-10T12:44:37;25.20;55.20
11474;DHT22;5793;52.238;13.438;2023-05-10T12:47:05;25.20;55.10
11474;DHT22;5793;52.238;13.438;2023-05-10T12:49:34;25.10;54.60
11474;DHT22;5793;52.238;13.438;2023-05-10T12:52:03;25.00;56.90
11474;DHT22;5793;52.238;13.438;2023-05-10T12:54:31;24.90;57.90
11474;DHT22;5793;52.238;13.438;2023-05-10T12:56:58;24.90;55.30
11474;DHT22;5793;52.238;13.438;2023-05-10T12:59:26;24.70;56.30
11474;DHT22;5793;52.238;13.438;2023-05-10T13:01:54;24.70;54.50
11474;DHT22;5793;52.238;13.438;2023-05-10T13:04:22;24.60;56.90
11474;DHT22;5793;52.238;13.438;2023-05-10T13:06:51;24.60;58.70
11474;DHT22;5793;52.238;13.438;2023-05-10T13:09:19;24.80;58.10
11474;DHT22;5793;52.238;13.438;2023-05-10T13:11:47;24.90;55.60
11474;DHT22;5793;52.238;13.438;2023-05-10T13:14:16;24.90;57.90
11474;DHT22;5793;52.238;13.438;2023-05-10T13:16:45;25.10;56.10
11474;DHT22;5793;52.238;13.438;2023-05-10T13:19:14;24.90;55.90
11474;DHT22;5793;52.238;13.438;2023-05-10T13:21:42;24.90;55.60
11474;DHT22;5793;52.238;13.438;2023-05-10T13:24:12;25.00;56.30
11474;DHT22;5793;52.238;13.438;2023-05-10T13:26:40;25.00;57.20
11474;DHT22;5793;52.238;13.438;2023-05-10T13:29:09;25.20;55.60
11474;DHT22;5793;52.238;13.438;2023-05-10T13:31:36;25.20;56.20
11474;DHT22;5793;52.238;13.438;2023-05-10T13:34:05;25.30;55.10
11474;DHT22;5793;52.238;13.438;2023-05-10T13:36:33;25.10;56.00
11474;DHT22;5793;52.238;13.438;2023-05-10T13:39:01;25.00;58.00
11474;DHT22;5793;52.238;13.438;2023-05-10T13:41:31;25.10;57.40
11474;DHT22;5793;52.238;13.438;2023-05-10T13:43:59;25.30;56.60
11474;DHT22;5793;52.238;13.438;2023-05-10T13:46:26;25.40;55.30
11474;DHT22;5793;52.238;13.438;2023-05-10T13:48:54;25.30;54.20
11474;DHT22;5793;52.238;13.438;2023-05-10T13:51:23;25.20;55.30
11474;DHT22;5793;52.238;13.438;2023-05-10T13:53:51;25.10;55.50
11474;DHT22;5793;52.238;13.438;2023-05-10T13:56:19;25.30;56.30
11474;DHT22;5793;52.238;13.438;2023-05-10T13:58:48;25.50;56.90
11474;DHT22;5793;52.238;13.438;2023-05-10T14:01:16;25.60;56.20
11474;DHT22;5793;52.238;13.438;2023-05-10T14:03:44;25.50;54.80
11474;DHT22;5793;52.238;13.438;2023-05-10T14:06:12;25.30;56.00
11474;DHT22;5793;52.238;13.438;2023-05-10T14:08:40;25.40;54.60
11474;DHT22;5793;52.238;13.438;2023-05-10T14:11:07;25.40;56.10
11474;DHT22;5793;52.238;13.438;2023-05-10T14:13:35;25.40;55.60
11474;DHT22;5793;52.238;13.438;2023-05-10T14:16:05;25.30;55.00
11474;DHT22;5793;52.238;13.438;2023-05-10T14:18:33;25.30;55.90
11474;DHT22;5793;52.238;13.438;2023-05-10T14:21:02;25.30;56.50
11474;DHT22;5793;52.238;13.438;2023-05-10T14:23:30;25.40;56.60
11474;DHT22;5793;52.238;13.438;2023-05-10T14:25:58;25.40;55.80
11474;DHT22;5793;52.238;13.438;2023-05-10T14:28:25;25.50;55.00
11474;DHT22;5793;52.238;13.438;2023-05-10T14:30:54;25.30;55.20
11474;DHT22;5793;52.238;13.438;2023-05-10T14:33:23;25.10;55.50
11474;DHT22;5793;52.238;13.438;2023-05-10T14:35:51;25.00;56.80
11474;DHT22;5793;52.238;13.438;2023-05-10T14:38:19;25.00;58.10
11474;DHT22;5793;52.238;13.438;2023-05-10T14:40:47;24.90;56.40
11474;DHT22;5793;52.238;13.438;2023-05-10T14:43:15;24.80;56.10
11474;DHT22;5793;52.238;13.438;2023-05-10T14:45:45;24.40;57.50
11474;DHT22;5793;52.238;13.438;2023-05-10T14:48:13;24.30;57.60
11474;DHT22;5793;52.238;13.438;2023-05-10T14:50:45;24.30;58.30
11474;DHT22;5793;52.238;13.438;2023-05-10T14:53:13;24.30;58.60
11474;DHT22;5793;52.238;13.438;2023-05-10T14:55:41;24.30;58.90
11474;DHT22;5793;52.238;13.438;2023-05-10T14:58:09;24.20;57.30
11474;DHT22;5793;52.238;13.438;2023-05-10T15:00:37;24.00;58.70
11474;DHT22;5793;52.238;13.438;2023-05-10T15:03:06;23.90;57.60
11474;DHT22;5793;52.238;13.438;2023-05-10T15:05:34;23.90;58.20
11474;DHT22;5793;52.238;13.438;2023-05-10T15:08:05;24.00;58.30
11474;DHT22;5793;52.238;13.438;2023-05-10T15:10:33;24.10;57.80
11474;DHT22;5793;52.238;13.438;2023-05-10T15:13:02;24.20;57.00
11474;DHT22;5793;52.238;13.438;2023-05-10T15:15:33;24.00;58.80
11474;DHT22;5793;52.238;13.438;2023-05-10T15:18:01;24.00;58.10
11474;DHT22;5793;52.238;13.438;2023-05-10T15:20:30;23.80;59.60
11474;DHT22;5793;52.238;13.438;2023-05-10T15:22:58;23.70;59.50
11474;DHT22;5793;52.238;13.438;2023-05-10T15:25:27;23.60;59.30
11474;DHT22;5793;52.238;13.438;2023-05-10T15:27:55;23.40;59.20
11474;DHT22;5793;52.238;13.438;2023-05-10T15:30:23;23.40;59.70
11474;DHT22;5793;52.238;13.438;2023-05-10T15:32:51;23.30;60.00
11474;DHT22;5793;52.238;13.438;2023-05-10T15:35:19;23.20;59.80
11474;DHT22;5793;52.238;13.438;2023-05-10T15:37:47;23.10;64.90
11474;DHT22;5793;52.238;13.438;2023-05-10T15:40:15;22.80;72.00
11474;DHT22;5793;52.238;13.438;2023-05-10T15:42:45;22.30;75.80
11474;DHT22;5793;52.238;13.438;2023-05-10T15:45:14;22.00;80.00
11474;DHT22;5793;52.238;13.438;2023-05-10T15:47:45;21.80;85.20
11474;DHT22;5793;52.238;13.438;2023-05-10T15:50:16;21.80;91.60
11474;DHT22;5793;52.238;13.438;2023-05-10T15:52:44;21.70;95.40